createdAt,value
2018-12-17T00:00:51.221Z,89.10
2018-12-17T00:03:21.864Z,88.80
2018-12-17T00:05:50.433Z,89.00
2018-12-17T00:08:18.755Z,89.50
2018-12-17T00:10:47.373Z,89.60
2018-12-17T00:13:15.758Z,89.80
2018-12-17T00:15:44.655Z,89.90
2018-12-17T00:18:13.222Z,90.00
2018-12-17T00:20:41.565Z,90.00
2018-12-17T00:23:09.935Z,90.00
2018-12-17T00:25:38.252Z,90.00
2018-12-17T00:28:08.339Z,89.60
2018-12-17T00:30:38.259Z,89.80
2018-12-17T00:33:07.132Z,89.50
2018-12-17T00:35:36.198Z,89.50
2018-12-17T00:38:04.650Z,90.10
2018-12-17T00:40:33.196Z,89.80
2018-12-17T00:43:01.591Z,90.30
2018-12-17T00:45:30.040Z,90.00
2018-12-17T00:47:58.578Z,90.00
2018-12-17T00:50:27.135Z,89.90
2018-12-17T00:52:55.627Z,89.70
2018-12-17T00:55:23.965Z,89.70
2018-12-17T00:57:52.337Z,89.70
2018-12-17T01:00:20.825Z,89.80
2018-12-17T01:02:50.061Z,90.00
2018-12-17T01:05:18.549Z,90.10
2018-12-17T01:07:47.455Z,90.10
2018-12-17T01:10:16.203Z,90.10
2018-12-17T01:12:44.613Z,90.10
2018-12-17T01:15:14.473Z,90.00
2018-12-17T01:17:43.852Z,90.00
2018-12-17T01:20:12.531Z,90.00
2018-12-17T01:22:40.836Z,90.10
2018-12-17T01:25:10.541Z,90.00
2018-12-17T01:27:38.870Z,90.00
2018-12-17T01:30:08.646Z,90.10
2018-12-17T01:32:37.919Z,90.10
2018-12-17T01:35:08.601Z,90.00
2018-12-17T01:37:37.280Z,90.10
2018-12-17T01:40:06.859Z,90.00
2018-12-17T01:42:35.612Z,90.10
2018-12-17T01:45:05.054Z,90.00
2018-12-17T01:47:34.329Z,90.00
2018-12-17T01:50:03.188Z,90.20
2018-12-17T01:52:31.851Z,90.60
2018-12-17T01:55:00.970Z,90.20
2018-12-17T01:57:36.605Z,90.20
2018-12-17T02:00:05.455Z,90.30
2018-12-17T02:02:34.442Z,90.00
2018-12-17T02:05:03.730Z,90.00
2018-12-17T02:07:32.161Z,89.70
2018-12-17T02:10:01.533Z,89.60
2018-12-17T02:12:32.089Z,90.00
2018-12-17T02:15:00.563Z,90.00
2018-12-17T02:17:29.267Z,90.00
2018-12-17T02:19:57.771Z,90.10
2018-12-17T02:22:26.166Z,90.00
2018-12-17T02:24:54.526Z,90.20
2018-12-17T02:27:33.289Z,90.30
2018-12-17T02:30:01.682Z,90.40
2018-12-17T02:32:30.242Z,90.40
2018-12-17T02:34:59.241Z,90.70
2018-12-17T02:37:27.693Z,90.60
2018-12-17T02:39:58.043Z,90.40
2018-12-17T02:42:26.598Z,90.00
2018-12-17T02:44:55.173Z,89.20
2018-12-17T02:47:23.682Z,88.80
2018-12-17T02:49:52.073Z,88.40
2018-12-17T02:52:21.060Z,88.30
2018-12-17T02:54:49.431Z,88.70
2018-12-17T02:57:17.879Z,89.20
2018-12-17T02:59:46.359Z,89.80
2018-12-17T03:02:15.577Z,90.00
2018-12-17T03:04:43.861Z,89.90
2018-12-17T03:07:12.467Z,89.80
2018-12-17T03:09:41.484Z,90.40
2018-12-17T03:12:09.877Z,90.10
2018-12-17T03:14:38.589Z,90.20
2018-12-17T03:17:07.135Z,90.20
2018-12-17T03:19:35.554Z,90.20
2018-12-17T03:22:04.115Z,90.10
2018-12-17T03:24:33.049Z,90.20
2018-12-17T03:27:11.299Z,90.20
2018-12-17T03:29:39.818Z,90.20
2018-12-17T03:32:09.206Z,90.20
2018-12-17T03:34:37.559Z,90.10
2018-12-17T03:37:05.877Z,90.00
2018-12-17T03:39:34.664Z,89.60
2018-12-17T03:42:03.435Z,89.60
2018-12-17T03:44:32.581Z,90.10
2018-12-17T03:47:00.997Z,90.00
2018-12-17T03:49:29.952Z,89.60
2018-12-17T03:51:58.358Z,89.50
2018-12-17T03:54:26.787Z,89.50
2018-12-17T03:56:55.209Z,89.40
2018-12-17T03:59:24.120Z,90.00
2018-12-17T04:01:53.279Z,90.00
2018-12-17T04:04:21.657Z,89.30
2018-12-17T04:06:50.035Z,89.30
2018-12-17T04:09:18.356Z,89.20
2018-12-17T04:11:47.523Z,89.20
2018-12-17T04:14:16.944Z,89.20
2018-12-17T04:16:45.250Z,89.10
2018-12-17T04:19:13.584Z,89.20
2018-12-17T04:21:42.008Z,89.20
2018-12-17T04:24:10.390Z,89.20
2018-12-17T04:26:39.705Z,89.00
2018-12-17T04:29:08.040Z,89.10
2018-12-17T04:31:36.389Z,89.20
2018-12-17T04:34:04.980Z,89.00
2018-12-17T04:36:33.308Z,89.10
2018-12-17T04:39:01.640Z,89.70
2018-12-17T04:41:31.170Z,89.60
2018-12-17T04:44:00.297Z,89.90
2018-12-17T04:46:28.758Z,90.00
2018-12-17T04:48:57.104Z,90.10
2018-12-17T04:51:25.675Z,90.20
2018-12-17T04:53:55.725Z,90.50
2018-12-17T04:56:24.118Z,90.70
2018-12-17T04:58:52.756Z,90.60
2018-12-17T05:01:21.671Z,90.70
2018-12-17T05:03:49.964Z,90.40
2018-12-17T05:06:18.317Z,90.30
2018-12-17T05:08:46.636Z,90.20
2018-12-17T05:11:15.045Z,90.30
2018-12-17T05:13:45.845Z,90.50
2018-12-17T05:16:15.316Z,89.10
2018-12-17T05:18:43.945Z,88.90
2018-12-17T05:21:12.322Z,88.90
2018-12-17T05:23:40.663Z,88.30
2018-12-17T05:26:09.080Z,87.20
2018-12-17T05:28:37.551Z,87.00
2018-12-17T05:31:05.900Z,88.00
2018-12-17T05:33:34.404Z,87.90
2018-12-17T05:36:02.973Z,87.40
2018-12-17T05:38:31.408Z,87.90
2018-12-17T05:40:59.777Z,88.60
2018-12-17T05:43:28.173Z,89.40
2018-12-17T05:45:56.549Z,89.80
2018-12-17T05:48:25.689Z,90.10
2018-12-17T05:50:54.057Z,90.00
2018-12-17T05:53:22.457Z,89.80
2018-12-17T05:55:50.723Z,90.00
2018-12-17T05:58:19.666Z,89.80
2018-12-17T06:00:48.606Z,89.90
2018-12-17T06:03:18.082Z,89.60
2018-12-17T06:05:46.431Z,89.50
2018-12-17T06:08:14.840Z,89.60
2018-12-17T06:10:43.479Z,89.50
2018-12-17T06:13:11.857Z,89.60
2018-12-17T06:15:40.255Z,89.60
2018-12-17T06:18:09.138Z,89.50
2018-12-17T06:20:37.565Z,89.70
2018-12-17T06:23:06.014Z,90.20
2018-12-17T06:25:34.470Z,89.40
2018-12-17T06:28:03.194Z,89.00
2018-12-17T06:30:31.885Z,89.20
2018-12-17T06:33:00.347Z,89.10
2018-12-17T06:35:28.739Z,89.60
2018-12-17T06:37:57.349Z,89.80
2018-12-17T06:40:26.189Z,89.60
2018-12-17T06:42:54.605Z,89.90
2018-12-17T06:45:24.110Z,89.80
2018-12-17T06:47:52.453Z,89.70
2018-12-17T06:50:20.903Z,89.80
2018-12-17T06:52:49.940Z,90.00
2018-12-17T06:55:18.706Z,90.00
2018-12-17T06:57:47.439Z,90.00
2018-12-17T07:00:16.113Z,89.60
2018-12-17T07:02:44.748Z,89.50
2018-12-17T07:05:13.340Z,89.30
2018-12-17T07:07:42.311Z,89.30
2018-12-17T07:10:10.958Z,89.60
2018-12-17T07:12:39.408Z,90.10
2018-12-17T07:15:09.192Z,90.00
2018-12-17T07:17:37.559Z,89.80
2018-12-17T07:20:06.327Z,89.60
2018-12-17T07:22:34.727Z,89.30
2018-12-17T07:25:04.127Z,89.20
2018-12-17T07:27:32.683Z,89.20
2018-12-17T07:30:01.134Z,89.10
2018-12-17T07:32:30.124Z,88.60
2018-12-17T07:35:00.531Z,87.80
2018-12-17T07:37:29.614Z,87.70
2018-12-17T07:39:59.729Z,87.50
2018-12-17T07:42:28.070Z,87.50
2018-12-17T07:44:56.475Z,86.90
2018-12-17T07:47:24.835Z,86.90
2018-12-17T07:49:54.144Z,85.80
2018-12-17T07:52:23.158Z,85.60
2018-12-17T07:54:51.503Z,85.00
2018-12-17T07:57:20.060Z,84.20
2018-12-17T07:59:48.543Z,83.40
2018-12-17T08:02:16.884Z,83.80
2018-12-17T08:04:45.321Z,82.80
2018-12-17T08:07:14.572Z,83.10
2018-12-17T08:09:50.662Z,82.50
2018-12-17T08:12:19.993Z,83.00
2018-12-17T08:14:48.542Z,83.00
2018-12-17T08:17:16.994Z,82.40
2018-12-17T08:19:45.552Z,82.00
2018-12-17T08:22:14.933Z,83.20
2018-12-17T08:24:43.825Z,83.50
2018-12-17T08:27:13.374Z,83.60
2018-12-17T08:29:42.654Z,83.10
2018-12-17T08:32:11.209Z,82.80
2018-12-17T08:34:39.753Z,82.70
2018-12-17T08:37:08.218Z,82.40
2018-12-17T08:39:36.869Z,82.60
2018-12-17T08:42:05.851Z,82.30
2018-12-17T08:44:34.300Z,82.30
2018-12-17T08:47:02.875Z,82.40
2018-12-17T08:49:31.431Z,82.50
2018-12-17T08:52:00.081Z,83.20
2018-12-17T08:54:29.122Z,81.80
2018-12-17T08:56:57.573Z,82.30
2018-12-17T08:59:27.012Z,82.80
2018-12-17T09:01:55.409Z,82.70
2018-12-17T09:04:24.326Z,82.50
2018-12-17T09:06:52.813Z,83.20
2018-12-17T09:09:21.368Z,83.10
2018-12-17T09:11:49.785Z,82.50
2018-12-17T09:14:18.228Z,82.50
2018-12-17T09:16:46.583Z,82.60
2018-12-17T09:19:15.059Z,82.60
2018-12-17T09:21:43.552Z,82.30
2018-12-17T09:24:12.770Z,82.60
2018-12-17T09:26:48.030Z,82.70
2018-12-17T09:29:17.466Z,82.00
2018-12-17T09:31:45.907Z,82.10
2018-12-17T09:34:21.462Z,81.40
2018-12-17T09:36:49.905Z,81.30
2018-12-17T09:39:18.362Z,81.30
2018-12-17T09:41:47.600Z,81.30
2018-12-17T09:44:16.889Z,80.70
2018-12-17T09:46:45.427Z,80.00
2018-12-17T09:49:15.198Z,80.00
2018-12-17T09:51:43.586Z,80.20
2018-12-17T09:54:13.936Z,79.70
2018-12-17T09:56:42.580Z,78.90
2018-12-17T09:59:11.792Z,78.40
2018-12-17T10:01:40.707Z,79.20
2018-12-17T10:04:09.238Z,78.10
2018-12-17T10:06:38.100Z,79.00
2018-12-17T10:09:07.359Z,78.60
2018-12-17T10:11:35.962Z,78.00
2018-12-17T10:14:06.141Z,76.70
2018-12-17T10:16:35.067Z,75.90
2018-12-17T10:19:05.041Z,75.60
2018-12-17T10:21:36.197Z,74.40
2018-12-17T10:24:06.177Z,72.70
2018-12-17T10:26:36.072Z,70.90
2018-12-17T10:29:06.457Z,71.80
2018-12-17T10:31:35.144Z,71.20
2018-12-17T10:34:04.929Z,71.70
2018-12-17T10:36:36.348Z,71.50
2018-12-17T10:39:07.852Z,71.10
2018-12-17T10:41:38.311Z,70.90
2018-12-17T10:44:09.633Z,71.60
2018-12-17T10:46:39.209Z,71.30
2018-12-17T10:49:08.017Z,72.50
2018-12-17T10:51:36.427Z,72.60
2018-12-17T10:54:05.055Z,72.60
2018-12-17T10:56:33.447Z,72.60
2018-12-17T10:59:02.613Z,73.00
2018-12-17T11:01:37.286Z,74.00
2018-12-17T11:04:10.461Z,74.20
2018-12-17T11:06:39.285Z,74.10
2018-12-17T11:09:08.477Z,75.10
2018-12-17T11:11:37.883Z,75.20
2018-12-17T11:14:06.401Z,74.90
2018-12-17T11:16:34.836Z,74.90
2018-12-17T11:19:03.363Z,75.40
2018-12-17T11:21:31.968Z,76.60
2018-12-17T11:24:01.380Z,76.90
2018-12-17T11:26:30.128Z,77.00
2018-12-17T11:28:58.684Z,76.70
2018-12-17T11:31:27.109Z,77.10
2018-12-17T11:33:56.570Z,77.40
2018-12-17T11:36:24.903Z,78.20
2018-12-17T11:38:53.321Z,78.80
2018-12-17T11:41:21.852Z,78.50
2018-12-17T11:43:50.459Z,78.60
2018-12-17T11:46:18.778Z,79.00
2018-12-17T11:48:47.415Z,79.50
2018-12-17T11:51:16.111Z,79.70
2018-12-17T11:53:44.962Z,79.50
2018-12-17T11:56:13.463Z,79.70
2018-12-17T11:58:41.874Z,79.80
2018-12-17T12:01:12.542Z,79.80
2018-12-17T12:03:43.297Z,80.50
2018-12-17T12:06:14.136Z,80.70
2018-12-17T12:08:43.790Z,80.10
2018-12-17T12:11:13.095Z,79.60
2018-12-17T12:13:41.533Z,79.10
2018-12-17T12:16:10.156Z,78.90
2018-12-17T12:18:40.432Z,79.00
2018-12-17T12:21:08.838Z,79.50
2018-12-17T12:23:37.589Z,79.60
2018-12-17T12:26:06.544Z,79.50
2018-12-17T12:28:35.635Z,79.20
2018-12-17T12:31:05.073Z,79.70
2018-12-17T12:33:33.585Z,78.70
2018-12-17T12:36:02.898Z,78.40
2018-12-17T12:38:31.684Z,78.60
2018-12-17T12:41:00.597Z,78.90
2018-12-17T12:43:29.053Z,78.80
2018-12-17T12:45:57.377Z,79.10
2018-12-17T12:48:26.377Z,79.20
2018-12-17T12:50:54.794Z,79.20
2018-12-17T12:53:23.580Z,78.90
2018-12-17T12:55:51.917Z,78.50
2018-12-17T12:58:20.582Z,78.60
2018-12-17T13:00:55.016Z,78.80
2018-12-17T13:03:23.696Z,78.70
2018-12-17T13:05:52.351Z,78.60
2018-12-17T13:08:21.986Z,78.60
2018-12-17T13:10:50.516Z,78.20
2018-12-17T13:13:18.984Z,78.20
2018-12-17T13:15:47.307Z,78.20
2018-12-17T13:18:15.836Z,78.00
2018-12-17T13:20:44.189Z,78.30
2018-12-17T13:23:12.608Z,78.40
2018-12-17T13:25:46.488Z,79.30
2018-12-17T13:28:14.869Z,79.90
2018-12-17T13:30:43.990Z,80.80
2018-12-17T13:33:12.450Z,80.40
2018-12-17T13:35:41.005Z,79.80
2018-12-17T13:38:09.461Z,79.30
2018-12-17T13:40:38.313Z,79.20
2018-12-17T13:43:06.949Z,79.30
2018-12-17T13:45:36.297Z,80.10
2018-12-17T13:48:04.893Z,80.80
2018-12-17T13:50:36.433Z,81.00
2018-12-17T13:53:11.430Z,81.00
2018-12-17T13:55:40.036Z,80.90
2018-12-17T13:58:11.241Z,81.00
2018-12-17T14:00:39.804Z,81.30
2018-12-17T14:03:08.338Z,81.30
2018-12-17T14:05:36.820Z,80.70
2018-12-17T14:08:06.345Z,80.50
2018-12-17T14:10:40.685Z,80.10
2018-12-17T14:13:09.794Z,79.80
2018-12-17T14:15:44.177Z,79.90
2018-12-17T14:18:18.260Z,80.60
2018-12-17T14:20:52.049Z,80.70
2018-12-17T14:23:20.495Z,80.90
2018-12-17T14:25:49.953Z,81.30
2018-12-17T14:28:18.456Z,81.10
2018-12-17T14:30:48.272Z,81.10
2018-12-17T14:33:22.715Z,81.10
2018-12-17T14:35:56.496Z,81.10
2018-12-17T14:38:24.895Z,81.10
2018-12-17T14:40:54.052Z,81.20
2018-12-17T14:43:22.670Z,81.30
2018-12-17T14:45:51.060Z,81.40
2018-12-17T14:48:19.407Z,81.20
2018-12-17T14:50:49.004Z,81.50
2018-12-17T14:53:17.245Z,81.70
2018-12-17T14:55:45.712Z,81.60
2018-12-17T14:58:14.892Z,81.50
2018-12-17T15:00:43.265Z,81.50
2018-12-17T15:03:11.684Z,81.00
2018-12-17T15:05:40.199Z,81.30
2018-12-17T15:08:09.675Z,81.50
2018-12-17T15:10:38.086Z,81.70
2018-12-17T15:13:06.814Z,82.30
2018-12-17T15:15:35.476Z,82.90
2018-12-17T15:18:04.119Z,82.80
2018-12-17T15:20:34.447Z,83.10
2018-12-17T15:23:02.837Z,82.80
2018-12-17T15:25:31.943Z,83.40
2018-12-17T15:28:00.278Z,84.00
2018-12-17T15:30:28.953Z,84.20
2018-12-17T15:32:57.477Z,84.10
2018-12-17T15:35:25.917Z,83.80
2018-12-17T15:37:54.962Z,83.90
2018-12-17T15:40:23.742Z,83.90
2018-12-17T15:42:52.504Z,84.20
2018-12-17T15:45:21.799Z,85.00
2018-12-17T15:47:50.167Z,83.90
2018-12-17T15:50:18.630Z,84.00
2018-12-17T15:52:47.582Z,84.30
2018-12-17T15:55:16.326Z,84.50
2018-12-17T15:57:45.481Z,84.60
2018-12-17T16:00:14.653Z,84.40
2018-12-17T16:02:43.088Z,84.40
2018-12-17T16:05:11.409Z,84.30
2018-12-17T16:07:40.889Z,84.10
2018-12-17T16:10:09.351Z,83.90
2018-12-17T16:12:37.739Z,83.80
2018-12-17T16:15:06.708Z,83.80
2018-12-17T16:17:35.174Z,83.50
2018-12-17T16:20:03.915Z,83.50
2018-12-17T16:22:33.364Z,83.30
2018-12-17T16:25:02.165Z,83.60
2018-12-17T16:27:30.469Z,83.30
2018-12-17T16:29:58.838Z,83.30
2018-12-17T16:32:28.924Z,83.30
2018-12-17T16:34:58.536Z,83.50
2018-12-17T16:37:27.642Z,83.50
2018-12-17T16:39:56.590Z,83.40
2018-12-17T16:42:26.323Z,83.00
2018-12-17T16:44:54.698Z,82.90
2018-12-17T16:47:24.218Z,82.80
2018-12-17T16:49:52.543Z,82.80
2018-12-17T16:52:20.950Z,82.80
2018-12-17T16:54:49.302Z,82.80
2018-12-17T16:57:18.604Z,82.80
2018-12-17T16:59:47.403Z,83.30
2018-12-17T17:02:15.857Z,82.90
2018-12-17T17:04:44.806Z,82.90
2018-12-17T17:07:13.235Z,82.90
2018-12-17T17:09:41.665Z,82.90
2018-12-17T17:12:10.240Z,82.80
2018-12-17T17:14:38.630Z,83.30
2018-12-17T17:17:07.018Z,83.60
2018-12-17T17:19:35.620Z,84.00
2018-12-17T17:22:04.066Z,83.90
2018-12-17T17:24:33.422Z,84.00
2018-12-17T17:27:02.114Z,84.30
2018-12-17T17:29:31.869Z,84.50
2018-12-17T17:32:00.445Z,84.60
2018-12-17T17:34:29.241Z,84.70
2018-12-17T17:37:00.623Z,84.80
2018-12-17T17:39:30.197Z,85.30
2018-12-17T17:41:58.994Z,85.50
2018-12-17T17:44:28.190Z,86.00
2018-12-17T17:46:56.583Z,85.90
2018-12-17T17:49:25.385Z,86.40
2018-12-17T17:51:53.741Z,86.30
2018-12-17T17:54:22.619Z,86.30
2018-12-17T17:56:50.978Z,86.30
2018-12-17T17:59:19.509Z,86.20
2018-12-17T18:01:47.913Z,86.90
2018-12-17T18:04:17.392Z,86.30
2018-12-17T18:06:46.841Z,86.40
2018-12-17T18:09:15.253Z,86.80
2018-12-17T18:11:43.536Z,87.10
2018-12-17T18:14:12.220Z,87.50
2018-12-17T18:16:41.034Z,87.20
2018-12-17T18:19:09.472Z,87.30
2018-12-17T18:21:38.800Z,87.40
2018-12-17T18:24:07.130Z,87.50
2018-12-17T18:26:36.418Z,87.60
2018-12-17T18:29:05.485Z,87.80
2018-12-17T18:31:33.981Z,87.90
2018-12-17T18:34:03.337Z,88.00
2018-12-17T18:36:32.073Z,87.90
2018-12-17T18:39:01.062Z,88.10
2018-12-17T18:41:29.456Z,88.50
2018-12-17T18:43:58.049Z,88.90
2018-12-17T18:46:26.789Z,89.50
2018-12-17T18:48:55.218Z,89.70
2018-12-17T18:51:23.632Z,90.00
2018-12-17T18:53:51.964Z,89.90
2018-12-17T18:56:20.501Z,89.90
2018-12-17T18:58:49.121Z,89.70
2018-12-17T19:01:17.499Z,90.00
2018-12-17T19:03:45.947Z,90.10
2018-12-17T19:06:14.509Z,90.10
2018-12-17T19:08:42.798Z,90.10
2018-12-17T19:11:11.515Z,89.90
2018-12-17T19:13:39.798Z,89.70
2018-12-17T19:16:08.117Z,89.80
2018-12-17T19:18:36.687Z,89.90
2018-12-17T19:21:05.930Z,90.00
2018-12-17T19:23:34.561Z,89.60
2018-12-17T19:26:02.910Z,89.20
2018-12-17T19:28:31.465Z,89.40
2018-12-17T19:30:59.776Z,89.40
2018-12-17T19:33:28.371Z,89.40
2018-12-17T19:36:03.292Z,89.20
2018-12-17T19:38:31.925Z,89.60
2018-12-17T19:41:00.301Z,89.10
2018-12-17T19:43:28.681Z,89.10
2018-12-17T19:45:57.000Z,88.80
2018-12-17T19:48:25.446Z,88.70
2018-12-17T19:50:54.463Z,89.00
2018-12-17T19:53:22.827Z,88.90
2018-12-17T19:55:51.193Z,88.40
2018-12-17T19:58:20.269Z,88.50
2018-12-17T20:00:48.619Z,88.70
2018-12-17T20:03:17.120Z,88.70
2018-12-17T20:05:46.067Z,88.30
2018-12-17T20:08:14.834Z,88.30
2018-12-17T20:10:43.379Z,88.40
2018-12-17T20:13:11.935Z,88.70
2018-12-17T20:15:40.866Z,88.90
2018-12-17T20:18:09.330Z,88.90
2018-12-17T20:20:37.672Z,88.90
2018-12-17T20:23:06.086Z,89.20
2018-12-17T20:25:34.702Z,89.30
2018-12-17T20:28:03.494Z,88.90
2018-12-17T20:30:32.656Z,89.00
2018-12-17T20:33:01.015Z,88.80
2018-12-17T20:35:29.594Z,88.90
2018-12-17T20:37:58.025Z,88.90
2018-12-17T20:40:26.442Z,88.80
2018-12-17T20:42:56.120Z,88.90
2018-12-17T20:45:24.649Z,88.80
2018-12-17T20:47:53.132Z,88.60
2018-12-17T20:50:21.566Z,88.70
2018-12-17T20:52:50.108Z,89.00
2018-12-17T20:55:18.493Z,89.10
2018-12-17T20:57:46.914Z,89.10
2018-12-17T21:00:16.203Z,89.10
2018-12-17T21:02:44.731Z,89.80
2018-12-17T21:05:13.493Z,89.40
2018-12-17T21:07:42.141Z,89.70
2018-12-17T21:10:10.581Z,89.80
2018-12-17T21:12:38.894Z,89.80
2018-12-17T21:15:08.088Z,89.70
2018-12-17T21:17:36.429Z,89.60
2018-12-17T21:20:05.013Z,89.40
2018-12-17T21:22:33.834Z,89.50
2018-12-17T21:25:02.382Z,89.40
2018-12-17T21:27:30.753Z,89.20
2018-12-17T21:29:59.179Z,88.60
2018-12-17T21:32:28.479Z,88.80
2018-12-17T21:34:57.957Z,89.00
2018-12-17T21:37:26.321Z,89.10
2018-12-17T21:39:54.722Z,88.70
2018-12-17T21:42:22.985Z,88.70
2018-12-17T21:44:51.286Z,88.60
2018-12-17T21:47:19.628Z,88.10
2018-12-17T21:49:47.989Z,88.20
2018-12-17T21:52:16.417Z,88.30
2018-12-17T21:54:44.697Z,88.40
2018-12-17T21:57:13.096Z,88.40
2018-12-17T21:59:41.404Z,88.50
2018-12-17T22:02:09.729Z,88.30
2018-12-17T22:04:38.068Z,87.90
2018-12-17T22:07:06.768Z,87.80
2018-12-17T22:09:35.131Z,87.90
2018-12-17T22:12:03.506Z,88.10
2018-12-17T22:14:31.864Z,88.00
2018-12-17T22:17:00.200Z,88.00
2018-12-17T22:19:28.476Z,88.10
2018-12-17T22:21:56.793Z,87.80
2018-12-17T22:24:25.098Z,87.50
2018-12-17T22:26:54.357Z,87.80
2018-12-17T22:29:22.736Z,87.60
2018-12-17T22:31:51.785Z,87.80
2018-12-17T22:34:21.897Z,88.20
2018-12-17T22:36:50.156Z,88.40
2018-12-17T22:39:18.883Z,88.30
2018-12-17T22:41:47.186Z,88.40
2018-12-17T22:44:15.801Z,89.00
2018-12-17T22:46:44.654Z,88.80
2018-12-17T22:49:13.339Z,88.70
2018-12-17T22:51:41.619Z,89.50
2018-12-17T22:54:10.456Z,88.70
2018-12-17T22:56:38.742Z,88.60
2018-12-17T22:59:07.049Z,88.20
2018-12-17T23:01:35.347Z,87.80
2018-12-17T23:04:03.765Z,87.50
2018-12-17T23:06:32.750Z,87.30
2018-12-17T23:09:10.896Z,86.60
2018-12-17T23:11:56.116Z,86.20
2018-12-17T23:14:36.547Z,85.80
2018-12-17T23:17:17.102Z,86.10
2018-12-17T23:19:47.355Z,85.70
2018-12-17T23:22:16.294Z,85.90
2018-12-17T23:24:44.755Z,85.80
2018-12-17T23:27:14.877Z,85.90
2018-12-17T23:29:43.154Z,85.70
2018-12-17T23:32:11.883Z,85.40
2018-12-17T23:34:40.142Z,85.20
2018-12-17T23:37:08.419Z,85.50
2018-12-17T23:39:37.434Z,85.50
2018-12-17T23:42:05.787Z,85.60
2018-12-17T23:44:37.648Z,85.60
2018-12-17T23:47:06.146Z,85.20
2018-12-17T23:49:34.516Z,85.30
2018-12-17T23:52:03.625Z,85.60
2018-12-17T23:54:31.951Z,85.90
2018-12-17T23:57:00.670Z,85.70
2018-12-17T23:59:29.016Z,85.20
